JZA431 CYYZ-CYTS
Flight info
| Callsign | JZA431 |
|---|---|
| Flight time | 1h 11m |
| Altitude | 24000 |
| Route | MATES6 TONNY DCT YTS |
| Aircraft | DH8D/M-SDE2E3FGRY/H |
Departure
| Time | 2026-05-07 07:03 |
|---|---|
| Airport | Toronto Pearson International Airport (CYYZ) |
Arrival
| Time | 2026-05-07 08:14 |
|---|---|
| Airport | Timmins/Victor M. Power (CYTS) |
| Time | Latitude | Longitude | Altitude | Speed | Heading |
|---|---|---|---|---|---|
| 2026-05-07 06:41 | 43.67915 | -79.60838 | 567 ft | 0 kts | 46° |
| 2026-05-07 06:55 | 43.67906 | -79.60850 | 567 ft | 2 kts | 46° |
| 2026-05-07 06:55 | 43.67896 | -79.60865 | 567 ft | 2 kts | 46° |
| 2026-05-07 06:55 | 43.67886 | -79.60880 | 567 ft | 2 kts | 46° |
| 2026-05-07 06:55 | 43.67881 | -79.60888 | 567 ft | 0 kts | 70° |
| 2026-05-07 06:56 | 43.67881 | -79.60896 | 567 ft | 0 kts | 121° |
| 2026-05-07 06:56 | 43.67884 | -79.60902 | 567 ft | 0 kts | 137° |
| 2026-05-07 06:58 | 43.67879 | -79.60895 | 567 ft | 2 kts | 137° |
| 2026-05-07 06:58 | 43.67860 | -79.60870 | 566 ft | 6 kts | 135° |
| 2026-05-07 06:58 | 43.67819 | -79.60815 | 565 ft | 9 kts | 136° |
| 2026-05-07 06:59 | 43.67770 | -79.60751 | 563 ft | 10 kts | 136° |
| 2026-05-07 06:59 | 43.67716 | -79.60683 | 562 ft | 10 kts | 143° |
| 2026-05-07 06:59 | 43.67651 | -79.60628 | 561 ft | 11 kts | 155° |
| 2026-05-07 06:59 | 43.67586 | -79.60664 | 559 ft | 10 kts | 228° |
| 2026-05-07 07:00 | 43.67540 | -79.60736 | 559 ft | 9 kts | 224° |
| 2026-05-07 07:00 | 43.67496 | -79.60795 | 560 ft | 7 kts | 224° |
| 2026-05-07 07:00 | 43.67460 | -79.60847 | 560 ft | 7 kts | 231° |
| 2026-05-07 07:00 | 43.67431 | -79.60903 | 560 ft | 8 kts | 235° |
| 2026-05-07 07:01 | 43.67384 | -79.60990 | 560 ft | 13 kts | 232° |
| 2026-05-07 07:01 | 43.67323 | -79.61103 | 560 ft | 15 kts | 233° |
| 2026-05-07 07:01 | 43.67260 | -79.61215 | 560 ft | 13 kts | 232° |
| 2026-05-07 07:01 | 43.67208 | -79.61313 | 559 ft | 11 kts | 234° |
| 2026-05-07 07:02 | 43.67160 | -79.61394 | 559 ft | 10 kts | 224° |
| 2026-05-07 07:02 | 43.67111 | -79.61462 | 558 ft | 9 kts | 243° |
| 2026-05-07 07:02 | 43.67133 | -79.61524 | 559 ft | 6 kts | 319° |
| 2026-05-07 07:02 | 43.67196 | -79.61604 | 561 ft | 31 kts | 314° |
| 2026-05-07 07:03 | 43.67597 | -79.62128 | 571 ft | 121 kts | 316° |
| 2026-05-07 07:03 | 43.68346 | -79.63079 | 769 ft | 157 kts | 318° |
| 2026-05-07 07:03 | 43.69149 | -79.64008 | 1705 ft | 149 kts | 325° |
| 2026-05-07 07:03 | 43.70171 | -79.64440 | 2216 ft | 174 kts | 354° |
| 2026-05-07 07:04 | 43.71468 | -79.64334 | 2705 ft | 191 kts | 0° |
| 2026-05-07 07:04 | 43.72730 | -79.64253 | 3471 ft | 190 kts | 358° |
| 2026-05-07 07:04 | 43.74078 | -79.64185 | 4108 ft | 191 kts | 355° |
| 2026-05-07 07:04 | 43.75387 | -79.64190 | 4768 ft | 194 kts | 355° |
| 2026-05-07 07:05 | 43.76748 | -79.64177 | 5427 ft | 197 kts | 355° |
| 2026-05-07 07:05 | 43.78104 | -79.64152 | 6072 ft | 196 kts | 355° |
| 2026-05-07 07:05 | 43.79491 | -79.64124 | 6486 ft | 206 kts | 355° |
| 2026-05-07 07:05 | 43.80957 | -79.64092 | 6997 ft | 211 kts | 355° |
| 2026-05-07 07:06 | 43.82429 | -79.64070 | 7523 ft | 213 kts | 353° |
| 2026-05-07 07:06 | 43.83910 | -79.64127 | 8086 ft | 215 kts | 352° |
| 2026-05-07 07:06 | 43.85400 | -79.64168 | 8625 ft | 218 kts | 352° |
| 2026-05-07 07:06 | 43.86924 | -79.64194 | 9201 ft | 220 kts | 352° |
| 2026-05-07 07:07 | 43.88461 | -79.64204 | 9790 ft | 223 kts | 352° |
| 2026-05-07 07:07 | 43.90014 | -79.64201 | 10365 ft | 230 kts | 352° |
| 2026-05-07 07:07 | 43.91673 | -79.64205 | 10779 ft | 244 kts | 352° |
| 2026-05-07 07:07 | 43.93372 | -79.64202 | 11382 ft | 248 kts | 352° |
| 2026-05-07 07:08 | 43.95081 | -79.64372 | 12017 ft | 244 kts | 340° |
| 2026-05-07 07:08 | 43.96712 | -79.64964 | 12643 ft | 247 kts | 338° |
| 2026-05-07 07:08 | 43.98387 | -79.65524 | 13326 ft | 247 kts | 338° |
| 2026-05-07 07:08 | 44.00052 | -79.66090 | 13820 ft | 253 kts | 338° |
| 2026-05-07 07:09 | 44.01757 | -79.66679 | 14366 ft | 254 kts | 337° |
| 2026-05-07 07:09 | 44.03488 | -79.67281 | 14909 ft | 257 kts | 337° |
| 2026-05-07 07:09 | 44.05212 | -79.67886 | 15477 ft | 259 kts | 336° |
| 2026-05-07 07:09 | 44.06975 | -79.68494 | 16018 ft | 261 kts | 337° |
| 2026-05-07 07:10 | 44.08755 | -79.69074 | 16517 ft | 265 kts | 337° |
| 2026-05-07 07:10 | 44.10548 | -79.69659 | 16979 ft | 268 kts | 336° |
| 2026-05-07 07:10 | 44.12364 | -79.70252 | 17496 ft | 269 kts | 336° |
| 2026-05-07 07:10 | 44.14204 | -79.70858 | 17902 ft | 273 kts | 336° |
| 2026-05-07 07:11 | 44.16044 | -79.71463 | 18391 ft | 273 kts | 335° |
| 2026-05-07 07:11 | 44.17916 | -79.72084 | 18737 ft | 278 kts | 335° |
| 2026-05-07 07:11 | 44.19814 | -79.72721 | 19022 ft | 285 kts | 335° |
| 2026-05-07 07:11 | 44.21723 | -79.73380 | 19463 ft | 284 kts | 335° |
| 2026-05-07 07:12 | 44.23645 | -79.74047 | 19830 ft | 286 kts | 335° |
| 2026-05-07 07:12 | 44.25587 | -79.74719 | 20166 ft | 288 kts | 335° |
| 2026-05-07 07:12 | 44.27520 | -79.75391 | 20507 ft | 288 kts | 334° |
| 2026-05-07 07:12 | 44.29491 | -79.76075 | 20754 ft | 292 kts | 334° |
| 2026-05-07 07:13 | 44.31468 | -79.76762 | 21072 ft | 292 kts | 334° |
| 2026-05-07 07:13 | 44.33427 | -79.77445 | 21296 ft | 296 kts | 334° |
| 2026-05-07 07:13 | 44.35412 | -79.78135 | 21612 ft | 295 kts | 334° |
| 2026-05-07 07:13 | 44.37419 | -79.78831 | 21887 ft | 295 kts | 334° |
| 2026-05-07 07:14 | 44.39423 | -79.79531 | 22119 ft | 297 kts | 334° |
| 2026-05-07 07:14 | 44.41424 | -79.80228 | 22325 ft | 299 kts | 334° |
| 2026-05-07 07:14 | 44.43454 | -79.80939 | 22530 ft | 301 kts | 334° |
| 2026-05-07 07:14 | 44.45484 | -79.81647 | 22772 ft | 301 kts | 334° |
| 2026-05-07 07:15 | 44.47516 | -79.82355 | 22994 ft | 302 kts | 334° |
| 2026-05-07 07:15 | 44.49543 | -79.83064 | 23198 ft | 303 kts | 334° |
| 2026-05-07 07:15 | 44.51581 | -79.83775 | 23383 ft | 303 kts | 334° |
| 2026-05-07 07:15 | 44.53648 | -79.84500 | 23535 ft | 306 kts | 334° |
| 2026-05-07 07:16 | 44.55711 | -79.85222 | 23761 ft | 305 kts | 334° |
| 2026-05-07 07:16 | 44.57755 | -79.85939 | 23891 ft | 308 kts | 334° |
| 2026-05-07 07:16 | 44.59837 | -79.86674 | 23926 ft | 312 kts | 334° |
| 2026-05-07 07:16 | 44.61984 | -79.87431 | 23933 ft | 316 kts | 334° |
| 2026-05-07 07:17 | 44.64113 | -79.88180 | 23931 ft | 320 kts | 335° |
| 2026-05-07 07:17 | 44.66288 | -79.88946 | 23931 ft | 323 kts | 335° |
| 2026-05-07 07:17 | 44.68464 | -79.89710 | 23935 ft | 326 kts | 335° |
| 2026-05-07 07:17 | 44.70667 | -79.90485 | 23931 ft | 328 kts | 335° |
| 2026-05-07 07:18 | 44.72876 | -79.91262 | 23922 ft | 329 kts | 335° |
| 2026-05-07 07:18 | 44.75114 | -79.92050 | 23922 ft | 330 kts | 335° |
| 2026-05-07 07:18 | 44.77355 | -79.92840 | 23917 ft | 331 kts | 335° |
| 2026-05-07 07:18 | 44.79589 | -79.93628 | 23921 ft | 332 kts | 336° |
| 2026-05-07 07:19 | 44.81826 | -79.94418 | 23918 ft | 333 kts | 336° |
| 2026-05-07 07:19 | 44.84050 | -79.95203 | 23914 ft | 333 kts | 336° |
| 2026-05-07 07:19 | 44.86307 | -79.96001 | 23922 ft | 334 kts | 335° |
| 2026-05-07 07:19 | 44.88547 | -79.96794 | 23924 ft | 334 kts | 336° |
| 2026-05-07 07:20 | 44.90810 | -79.97596 | 23921 ft | 334 kts | 336° |
| 2026-05-07 07:20 | 44.93075 | -79.98399 | 23922 ft | 334 kts | 336° |
| 2026-05-07 07:20 | 44.95311 | -79.99193 | 23915 ft | 334 kts | 336° |
| 2026-05-07 07:20 | 44.97564 | -79.99992 | 23924 ft | 333 kts | 336° |
| 2026-05-07 07:21 | 44.99809 | -80.00790 | 23928 ft | 333 kts | 336° |
| 2026-05-07 07:21 | 45.02042 | -80.01585 | 23932 ft | 333 kts | 336° |
| 2026-05-07 07:21 | 45.04283 | -80.02385 | 23920 ft | 333 kts | 336° |
| 2026-05-07 07:21 | 45.06543 | -80.03191 | 23921 ft | 333 kts | 336° |
| 2026-05-07 07:22 | 45.08769 | -80.03986 | 23922 ft | 333 kts | 336° |
| 2026-05-07 07:22 | 45.11022 | -80.04791 | 23926 ft | 333 kts | 336° |
| 2026-05-07 07:22 | 45.13278 | -80.05597 | 23927 ft | 332 kts | 337° |
| 2026-05-07 07:22 | 45.15503 | -80.06393 | 23922 ft | 333 kts | 337° |
| 2026-05-07 07:23 | 45.17754 | -80.07198 | 23917 ft | 332 kts | 336° |
| 2026-05-07 07:23 | 45.19980 | -80.07996 | 23918 ft | 332 kts | 337° |
| 2026-05-07 07:23 | 45.22237 | -80.08805 | 23921 ft | 332 kts | 337° |
| 2026-05-07 07:23 | 45.24462 | -80.09604 | 23920 ft | 332 kts | 337° |
| 2026-05-07 07:24 | 45.26717 | -80.10415 | 23922 ft | 332 kts | 337° |
| 2026-05-07 07:24 | 45.28934 | -80.11212 | 23919 ft | 332 kts | 337° |
| 2026-05-07 07:24 | 45.31184 | -80.12022 | 23920 ft | 332 kts | 337° |
| 2026-05-07 07:24 | 45.33407 | -80.12822 | 23917 ft | 332 kts | 337° |
| 2026-05-07 07:25 | 45.37886 | -80.14438 | 23910 ft | 332 kts | 338° |
| 2026-05-07 07:25 | 45.40129 | -80.15247 | 23918 ft | 332 kts | 338° |
| 2026-05-07 07:25 | 45.42386 | -80.16063 | 23924 ft | 333 kts | 338° |
| 2026-05-07 07:26 | 45.44604 | -80.16865 | 23921 ft | 333 kts | 338° |
| 2026-05-07 07:26 | 45.46865 | -80.17683 | 23914 ft | 332 kts | 338° |
| 2026-05-07 07:26 | 45.49089 | -80.18488 | 23911 ft | 333 kts | 338° |
| 2026-05-07 07:26 | 45.51351 | -80.19309 | 23917 ft | 333 kts | 338° |
| 2026-05-07 07:27 | 45.53564 | -80.20112 | 23919 ft | 333 kts | 339° |
| 2026-05-07 07:27 | 45.55830 | -80.20935 | 23911 ft | 333 kts | 338° |
| 2026-05-07 07:27 | 45.58067 | -80.21748 | 23904 ft | 333 kts | 338° |
| 2026-05-07 07:27 | 45.60309 | -80.22563 | 23916 ft | 332 kts | 339° |
| 2026-05-07 07:28 | 45.62523 | -80.23369 | 23886 ft | 333 kts | 339° |
| 2026-05-07 07:28 | 45.64764 | -80.24184 | 23898 ft | 332 kts | 339° |
| 2026-05-07 07:28 | 45.67014 | -80.25005 | 23907 ft | 331 kts | 339° |
| 2026-05-07 07:28 | 45.69252 | -80.25821 | 23895 ft | 331 kts | 339° |
| 2026-05-07 07:29 | 45.71480 | -80.26635 | 23902 ft | 331 kts | 339° |
| 2026-05-07 07:29 | 45.73703 | -80.27447 | 23905 ft | 331 kts | 339° |
| 2026-05-07 07:29 | 45.75940 | -80.28265 | 23905 ft | 331 kts | 339° |
| 2026-05-07 07:29 | 45.78169 | -80.29082 | 23898 ft | 331 kts | 339° |
| 2026-05-07 07:30 | 45.80410 | -80.29903 | 23898 ft | 331 kts | 339° |
| 2026-05-07 07:30 | 45.82610 | -80.30710 | 23894 ft | 331 kts | 339° |
| 2026-05-07 07:30 | 45.84864 | -80.31537 | 23903 ft | 331 kts | 339° |
| 2026-05-07 07:30 | 45.87080 | -80.32350 | 23889 ft | 331 kts | 340° |
| 2026-05-07 07:31 | 45.89291 | -80.33163 | 23892 ft | 330 kts | 340° |
| 2026-05-07 07:31 | 45.91528 | -80.33985 | 23903 ft | 330 kts | 340° |
| 2026-05-07 07:31 | 45.93757 | -80.34807 | 23894 ft | 331 kts | 340° |
| 2026-05-07 07:31 | 45.95981 | -80.35626 | 23895 ft | 330 kts | 340° |
| 2026-05-07 07:32 | 45.98204 | -80.36446 | 23899 ft | 330 kts | 340° |
| 2026-05-07 07:32 | 46.00425 | -80.37266 | 23891 ft | 330 kts | 340° |
| 2026-05-07 07:32 | 46.02648 | -80.38088 | 23892 ft | 330 kts | 341° |
| 2026-05-07 07:32 | 46.04871 | -80.38910 | 23887 ft | 330 kts | 341° |
| 2026-05-07 07:33 | 46.07095 | -80.39733 | 23885 ft | 330 kts | 340° |
| 2026-05-07 07:33 | 46.09331 | -80.40562 | 23892 ft | 330 kts | 340° |
| 2026-05-07 07:33 | 46.11544 | -80.41382 | 23889 ft | 330 kts | 340° |
| 2026-05-07 07:33 | 46.13772 | -80.42208 | 23890 ft | 329 kts | 341° |
| 2026-05-07 07:34 | 46.15962 | -80.43021 | 23892 ft | 329 kts | 341° |
| 2026-05-07 07:34 | 46.18203 | -80.43854 | 23892 ft | 329 kts | 341° |
| 2026-05-07 07:34 | 46.20393 | -80.44669 | 23886 ft | 329 kts | 341° |
| 2026-05-07 07:34 | 46.22630 | -80.45501 | 23889 ft | 329 kts | 341° |
| 2026-05-07 07:35 | 46.24831 | -80.46321 | 23889 ft | 328 kts | 341° |
| 2026-05-07 07:35 | 46.27039 | -80.47144 | 23889 ft | 328 kts | 341° |
| 2026-05-07 07:35 | 46.29236 | -80.47964 | 23887 ft | 328 kts | 341° |
| 2026-05-07 07:35 | 46.31446 | -80.48789 | 23885 ft | 328 kts | 341° |
| 2026-05-07 07:36 | 46.33654 | -80.49615 | 23884 ft | 328 kts | 341° |
| 2026-05-07 07:36 | 46.35862 | -80.50440 | 23888 ft | 328 kts | 341° |
| 2026-05-07 07:36 | 46.38062 | -80.51264 | 23886 ft | 328 kts | 342° |
| 2026-05-07 07:36 | 46.40275 | -80.52094 | 23883 ft | 328 kts | 342° |
| 2026-05-07 07:37 | 46.42479 | -80.52921 | 23888 ft | 328 kts | 342° |
| 2026-05-07 07:37 | 46.44671 | -80.53743 | 23885 ft | 327 kts | 342° |
| 2026-05-07 07:37 | 46.46889 | -80.54459 | 23887 ft | 327 kts | 345° |
| 2026-05-07 07:37 | 46.49134 | -80.55069 | 23886 ft | 327 kts | 346° |
| 2026-05-07 07:38 | 46.51350 | -80.55701 | 23890 ft | 325 kts | 343° |
| 2026-05-07 07:38 | 46.53521 | -80.56595 | 23887 ft | 323 kts | 340° |
| 2026-05-07 07:38 | 46.55680 | -80.57530 | 23888 ft | 324 kts | 340° |
| 2026-05-07 07:38 | 46.57855 | -80.58445 | 23879 ft | 324 kts | 341° |
| 2026-05-07 07:39 | 46.60018 | -80.59330 | 23880 ft | 324 kts | 341° |
| 2026-05-07 07:39 | 46.62201 | -80.60206 | 23889 ft | 325 kts | 342° |
| 2026-05-07 07:39 | 46.64360 | -80.61060 | 23890 ft | 326 kts | 342° |
| 2026-05-07 07:39 | 46.66561 | -80.61921 | 23883 ft | 326 kts | 342° |
| 2026-05-07 07:40 | 46.68744 | -80.62769 | 23891 ft | 326 kts | 342° |
| 2026-05-07 07:40 | 46.70952 | -80.63620 | 23890 ft | 327 kts | 342° |
| 2026-05-07 07:40 | 46.73135 | -80.64459 | 23884 ft | 327 kts | 343° |
| 2026-05-07 07:40 | 46.75342 | -80.65305 | 23881 ft | 328 kts | 342° |
| 2026-05-07 07:41 | 46.77562 | -80.66155 | 23883 ft | 328 kts | 342° |
| 2026-05-07 07:41 | 46.79784 | -80.67004 | 23879 ft | 328 kts | 342° |
| 2026-05-07 07:41 | 46.81965 | -80.67838 | 23879 ft | 328 kts | 342° |
| 2026-05-07 07:41 | 46.84197 | -80.68690 | 23878 ft | 329 kts | 342° |
| 2026-05-07 07:42 | 46.86407 | -80.69536 | 23870 ft | 329 kts | 342° |
| 2026-05-07 07:42 | 46.88614 | -80.70379 | 23868 ft | 329 kts | 343° |
| 2026-05-07 07:42 | 46.90825 | -80.71225 | 23867 ft | 330 kts | 343° |
| 2026-05-07 07:42 | 46.93053 | -80.72077 | 23871 ft | 330 kts | 343° |
| 2026-05-07 07:43 | 46.95248 | -80.72919 | 23859 ft | 330 kts | 343° |
| 2026-05-07 07:43 | 46.97478 | -80.73773 | 23851 ft | 331 kts | 343° |
| 2026-05-07 07:43 | 46.99688 | -80.74620 | 23848 ft | 331 kts | 343° |
| 2026-05-07 07:43 | 47.01914 | -80.75474 | 23846 ft | 330 kts | 343° |
| 2026-05-07 07:44 | 47.04151 | -80.76332 | 23842 ft | 330 kts | 343° |
| 2026-05-07 07:44 | 47.06346 | -80.77176 | 23843 ft | 330 kts | 343° |
| 2026-05-07 07:44 | 47.08563 | -80.78029 | 23838 ft | 330 kts | 343° |
| 2026-05-07 07:44 | 47.10784 | -80.78884 | 23835 ft | 330 kts | 343° |
| 2026-05-07 07:45 | 47.13009 | -80.79742 | 23839 ft | 330 kts | 343° |
| 2026-05-07 07:45 | 47.15212 | -80.80592 | 23834 ft | 330 kts | 343° |
| 2026-05-07 07:45 | 47.17446 | -80.81455 | 23839 ft | 330 kts | 343° |
| 2026-05-07 07:45 | 47.19664 | -80.82312 | 23833 ft | 330 kts | 343° |
| 2026-05-07 07:46 | 47.21892 | -80.83173 | 23837 ft | 330 kts | 343° |
| 2026-05-07 07:46 | 47.24091 | -80.84023 | 23842 ft | 330 kts | 343° |
| 2026-05-07 07:46 | 47.26319 | -80.84886 | 23843 ft | 330 kts | 343° |
| 2026-05-07 07:46 | 47.28544 | -80.85748 | 23845 ft | 330 kts | 343° |
| 2026-05-07 07:47 | 47.30748 | -80.86603 | 23844 ft | 330 kts | 343° |
| 2026-05-07 07:47 | 47.32981 | -80.87471 | 23840 ft | 330 kts | 344° |
| 2026-05-07 07:47 | 47.35172 | -80.88322 | 23838 ft | 329 kts | 344° |
| 2026-05-07 07:47 | 47.37389 | -80.89185 | 23842 ft | 329 kts | 344° |
| 2026-05-07 07:48 | 47.39581 | -80.90038 | 23842 ft | 328 kts | 344° |
| 2026-05-07 07:48 | 47.41816 | -80.90909 | 23840 ft | 328 kts | 344° |
| 2026-05-07 07:48 | 47.43990 | -80.91757 | 23840 ft | 328 kts | 344° |
| 2026-05-07 07:48 | 47.46215 | -80.92625 | 23839 ft | 328 kts | 344° |
| 2026-05-07 07:49 | 47.48402 | -80.93481 | 23844 ft | 327 kts | 344° |
| 2026-05-07 07:49 | 47.50602 | -80.94341 | 23844 ft | 327 kts | 344° |
| 2026-05-07 07:49 | 47.52800 | -80.95201 | 23836 ft | 327 kts | 344° |
| 2026-05-07 07:49 | 47.54987 | -80.96059 | 23842 ft | 328 kts | 344° |
| 2026-05-07 07:50 | 47.57181 | -80.96918 | 23837 ft | 327 kts | 344° |
| 2026-05-07 07:50 | 47.59378 | -80.97781 | 23838 ft | 327 kts | 344° |
| 2026-05-07 07:50 | 47.61592 | -80.98650 | 23837 ft | 327 kts | 344° |
| 2026-05-07 07:50 | 47.63815 | -80.99525 | 23610 ft | 334 kts | 344° |
| 2026-05-07 07:51 | 47.66092 | -81.00420 | 23238 ft | 343 kts | 344° |
| 2026-05-07 07:51 | 47.68353 | -81.01311 | 22805 ft | 336 kts | 344° |
| 2026-05-07 07:51 | 47.70564 | -81.02192 | 22388 ft | 321 kts | 344° |
| 2026-05-07 07:51 | 47.72681 | -81.03034 | 21989 ft | 309 kts | 344° |
| 2026-05-07 07:52 | 47.74709 | -81.03841 | 21604 ft | 299 kts | 344° |
| 2026-05-07 07:52 | 47.76673 | -81.04622 | 21230 ft | 289 kts | 344° |
| 2026-05-07 07:52 | 47.78580 | -81.05379 | 20869 ft | 283 kts | 344° |
| 2026-05-07 07:52 | 47.80497 | -81.06136 | 20509 ft | 284 kts | 344° |
| 2026-05-07 07:53 | 47.82401 | -81.06889 | 20148 ft | 285 kts | 344° |
| 2026-05-07 07:53 | 47.84321 | -81.07649 | 19783 ft | 285 kts | 345° |
| 2026-05-07 07:53 | 47.86228 | -81.08405 | 19420 ft | 285 kts | 345° |
| 2026-05-07 07:53 | 47.88143 | -81.09165 | 19054 ft | 286 kts | 345° |
| 2026-05-07 07:54 | 47.90060 | -81.09926 | 18685 ft | 285 kts | 345° |
| 2026-05-07 07:54 | 47.91973 | -81.10686 | 18317 ft | 285 kts | 345° |
| 2026-05-07 07:54 | 47.93868 | -81.11440 | 18034 ft | 281 kts | 345° |
| 2026-05-07 07:54 | 47.95759 | -81.12193 | 17713 ft | 279 kts | 345° |
| 2026-05-07 07:55 | 47.97636 | -81.12941 | 17370 ft | 279 kts | 345° |
| 2026-05-07 07:55 | 47.99503 | -81.13686 | 17019 ft | 279 kts | 345° |
| 2026-05-07 07:55 | 48.01372 | -81.14430 | 16665 ft | 278 kts | 345° |
| 2026-05-07 07:55 | 48.03233 | -81.15173 | 16312 ft | 277 kts | 345° |
| 2026-05-07 07:56 | 48.05080 | -81.15912 | 15954 ft | 273 kts | 345° |
| 2026-05-07 07:56 | 48.06893 | -81.16640 | 15607 ft | 268 kts | 345° |
| 2026-05-07 07:56 | 48.08662 | -81.17348 | 15274 ft | 263 kts | 345° |
| 2026-05-07 07:56 | 48.10430 | -81.18057 | 14940 ft | 262 kts | 346° |
| 2026-05-07 07:57 | 48.12098 | -81.18722 | 14624 ft | 259 kts | 345° |
| 2026-05-07 07:57 | 48.13869 | -81.19431 | 14300 ft | 258 kts | 345° |
| 2026-05-07 07:57 | 48.15593 | -81.20122 | 13970 ft | 257 kts | 345° |
| 2026-05-07 07:57 | 48.17313 | -81.20812 | 13647 ft | 257 kts | 345° |
| 2026-05-07 07:58 | 48.19032 | -81.21503 | 13322 ft | 258 kts | 345° |
| 2026-05-07 07:58 | 48.20769 | -81.22200 | 12992 ft | 258 kts | 345° |
| 2026-05-07 07:58 | 48.22481 | -81.22888 | 12663 ft | 258 kts | 345° |
| 2026-05-07 07:58 | 48.24226 | -81.23591 | 12341 ft | 257 kts | 345° |
| 2026-05-07 07:59 | 48.25936 | -81.24280 | 12019 ft | 256 kts | 345° |
| 2026-05-07 07:59 | 48.27668 | -81.24979 | 11686 ft | 257 kts | 345° |
| 2026-05-07 07:59 | 48.29377 | -81.25668 | 11355 ft | 257 kts | 345° |
| 2026-05-07 07:59 | 48.31102 | -81.26365 | 11026 ft | 256 kts | 345° |
| 2026-05-07 08:00 | 48.32824 | -81.27061 | 10696 ft | 255 kts | 345° |
| 2026-05-07 08:00 | 48.34524 | -81.27749 | 10366 ft | 252 kts | 345° |
| 2026-05-07 08:00 | 48.36194 | -81.28431 | 10041 ft | 244 kts | 345° |
| 2026-05-07 08:00 | 48.37795 | -81.29082 | 9745 ft | 238 kts | 345° |
| 2026-05-07 08:01 | 48.39386 | -81.29730 | 9449 ft | 232 kts | 345° |
| 2026-05-07 08:01 | 48.40932 | -81.30359 | 9069 ft | 230 kts | 345° |
| 2026-05-07 08:01 | 48.42443 | -81.30973 | 8737 ft | 227 kts | 345° |
| 2026-05-07 08:01 | 48.43974 | -81.31595 | 8427 ft | 223 kts | 345° |
| 2026-05-07 08:02 | 48.45448 | -81.32194 | 8143 ft | 219 kts | 345° |
| 2026-05-07 08:02 | 48.46907 | -81.32788 | 7866 ft | 214 kts | 344° |
| 2026-05-07 08:02 | 48.48315 | -81.33361 | 7586 ft | 211 kts | 345° |
| 2026-05-07 08:02 | 48.49725 | -81.33935 | 7305 ft | 211 kts | 345° |
| 2026-05-07 08:03 | 48.51149 | -81.34538 | 6976 ft | 216 kts | 340° |
| 2026-05-07 08:03 | 48.52359 | -81.35899 | 6359 ft | 225 kts | 303° |
| 2026-05-07 08:03 | 48.52696 | -81.38161 | 5744 ft | 227 kts | 264° |
| 2026-05-07 08:03 | 48.51974 | -81.40250 | 5119 ft | 232 kts | 224° |
| 2026-05-07 08:04 | 48.50581 | -81.41341 | 4782 ft | 223 kts | 202° |
| 2026-05-07 08:04 | 48.49185 | -81.42075 | 4709 ft | 201 kts | 201° |
| 2026-05-07 08:04 | 48.47937 | -81.42719 | 4668 ft | 183 kts | 202° |
| 2026-05-07 08:04 | 48.46755 | -81.43343 | 4664 ft | 179 kts | 202° |
| 2026-05-07 08:05 | 48.45602 | -81.43966 | 4654 ft | 175 kts | 203° |
| 2026-05-07 08:05 | 48.44480 | -81.44622 | 4651 ft | 172 kts | 212° |
| 2026-05-07 08:05 | 48.43700 | -81.45898 | 4653 ft | 166 kts | 247° |
| 2026-05-07 08:05 | 48.43205 | -81.47517 | 4668 ft | 173 kts | 249° |
| 2026-05-07 08:06 | 48.42703 | -81.49210 | 4676 ft | 178 kts | 249° |
| 2026-05-07 08:06 | 48.42194 | -81.50920 | 4675 ft | 182 kts | 249° |
| 2026-05-07 08:06 | 48.41672 | -81.52671 | 4671 ft | 186 kts | 249° |
| 2026-05-07 08:06 | 48.41111 | -81.54470 | 4600 ft | 191 kts | 243° |
| 2026-05-07 08:07 | 48.40209 | -81.55917 | 4314 ft | 191 kts | 216° |
| 2026-05-07 08:07 | 48.38995 | -81.56617 | 4040 ft | 188 kts | 191° |
| 2026-05-07 08:07 | 48.37718 | -81.56508 | 3770 ft | 183 kts | 166° |
| 2026-05-07 08:07 | 48.36602 | -81.55690 | 3507 ft | 176 kts | 142° |
| 2026-05-07 08:08 | 48.35813 | -81.54389 | 3258 ft | 171 kts | 120° |
| 2026-05-07 08:08 | 48.35371 | -81.52702 | 3039 ft | 176 kts | 98° |
| 2026-05-07 08:08 | 48.35413 | -81.50906 | 2883 ft | 167 kts | 71° |
| 2026-05-07 08:08 | 48.35905 | -81.49425 | 2806 ft | 155 kts | 46° |
| 2026-05-07 08:09 | 48.36743 | -81.48402 | 2800 ft | 157 kts | 25° |
| 2026-05-07 08:09 | 48.37769 | -81.47755 | 2796 ft | 163 kts | 15° |
| 2026-05-07 08:09 | 48.38865 | -81.47257 | 2782 ft | 165 kts | 13° |
| 2026-05-07 08:09 | 48.39959 | -81.46755 | 2772 ft | 163 kts | 15° |
| 2026-05-07 08:10 | 48.41029 | -81.46212 | 2767 ft | 160 kts | 16° |
| 2026-05-07 08:10 | 48.42063 | -81.45655 | 2765 ft | 156 kts | 17° |
| 2026-05-07 08:10 | 48.43071 | -81.45104 | 2762 ft | 152 kts | 17° |
| 2026-05-07 08:10 | 48.44039 | -81.44574 | 2761 ft | 148 kts | 17° |
| 2026-05-07 08:11 | 48.45022 | -81.44032 | 2769 ft | 150 kts | 17° |
| 2026-05-07 08:11 | 48.46005 | -81.43492 | 2784 ft | 150 kts | 17° |
| 2026-05-07 08:11 | 48.46999 | -81.42949 | 2784 ft | 153 kts | 17° |
| 2026-05-07 08:11 | 48.48002 | -81.42404 | 2776 ft | 152 kts | 17° |
| 2026-05-07 08:12 | 48.48967 | -81.41882 | 2592 ft | 142 kts | 17° |
| 2026-05-07 08:12 | 48.49873 | -81.41386 | 2372 ft | 136 kts | 18° |
| 2026-05-07 08:12 | 48.50744 | -81.40903 | 2246 ft | 130 kts | 18° |
| 2026-05-07 08:12 | 48.51612 | -81.40423 | 2063 ft | 136 kts | 18° |
| 2026-05-07 08:13 | 48.52517 | -81.39929 | 1843 ft | 137 kts | 17° |
| 2026-05-07 08:13 | 48.53394 | -81.39453 | 1626 ft | 130 kts | 17° |
| 2026-05-07 08:13 | 48.54230 | -81.38997 | 1506 ft | 130 kts | 18° |
| 2026-05-07 08:13 | 48.55077 | -81.38515 | 1433 ft | 131 kts | 18° |
| 2026-05-07 08:14 | 48.55944 | -81.38072 | 1186 ft | 131 kts | 19° |
| 2026-05-07 08:14 | 48.56785 | -81.37588 | 962 ft | 118 kts | 18° |
| 2026-05-07 08:14 | 48.57304 | -81.37305 | 963 ft | 35 kts | 19° |
| 2026-05-07 08:14 | 48.57520 | -81.37193 | 962 ft | 23 kts | 22° |
| 2026-05-07 08:15 | 48.57578 | -81.37159 | 962 ft | 5 kts | 255° |
| 2026-05-07 08:15 | 48.57544 | -81.37195 | 962 ft | 5 kts | 204° |
| 2026-05-07 08:15 | 48.57504 | -81.37213 | 962 ft | 5 kts | 193° |
| 2026-05-07 08:15 | 48.57464 | -81.37228 | 962 ft | 6 kts | 194° |
| 2026-05-07 08:16 | 48.57384 | -81.37263 | 963 ft | 24 kts | 199° |
| 2026-05-07 08:16 | 48.57161 | -81.37380 | 963 ft | 36 kts | 201° |
| 2026-05-07 08:16 | 48.56990 | -81.37457 | 962 ft | 17 kts | 179° |
| 2026-05-07 08:16 | 48.56895 | -81.37373 | 962 ft | 15 kts | 142° |
| 2026-05-07 08:17 | 48.56806 | -81.37301 | 961 ft | 13 kts | 160° |
| 2026-05-07 08:17 | 48.56765 | -81.37219 | 960 ft | 5 kts | 103° |
| 2026-05-07 08:17 | 48.56764 | -81.37212 | 960 ft | 0 kts | 92° |